createdAt,value
2023-10-10T00:01:19.850Z,25.1
2023-10-10T00:09:45.865Z,20.2
2023-10-10T00:11:51.578Z,28
2023-10-10T00:15:01.710Z,18.7
2023-10-10T00:17:07.485Z,18.4
2023-10-10T00:19:13.447Z,19.3
2023-10-10T00:21:18.974Z,27.2
2023-10-10T00:31:50.764Z,17
2023-10-10T00:33:56.536Z,20.2
2023-10-10T00:36:02.269Z,13.9
2023-10-10T00:38:11.069Z,26.4
2023-10-10T00:40:18.656Z,17.5
2023-10-10T00:42:24.139Z,28.1
2023-10-10T00:48:41.465Z,22.7
2023-10-10T00:50:47.173Z,26.9
2023-10-10T00:57:07.425Z,21.7
2023-10-10T00:59:13.299Z,22.8
2023-10-10T01:05:30.489Z,40.9
2023-10-10T01:14:22.020Z,23.4
2023-10-10T01:16:27.746Z,31.8
2023-10-10T01:18:33.502Z,33.4
2023-10-10T01:24:53.740Z,19.2
2023-10-10T01:31:11.043Z,23.1
2023-10-10T01:35:25.612Z,19.4
2023-10-10T01:37:31.264Z,20.5
2023-10-10T01:50:08.854Z,28
2023-10-10T01:52:14.601Z,27.7
2023-10-10T01:54:20.357Z,19.6
2023-10-10T01:58:31.927Z,21.5
2023-10-10T02:04:52.181Z,27.9
2023-10-10T02:10:08.081Z,21.9
2023-10-10T02:16:25.388Z,29.9
2023-10-10T02:18:34.089Z,34.1
2023-10-10T02:22:45.638Z,23.5
2023-10-10T02:24:51.409Z,32.6
2023-10-10T02:26:57.157Z,26.3
2023-10-10T02:31:08.696Z,14.2
2023-10-10T02:33:17.493Z,36.1
2023-10-10T02:35:23.297Z,22
2023-10-10T02:37:28.929Z,23.1
2023-10-10T02:39:34.708Z,22.9
2023-10-10T02:43:46.228Z,27.4
2023-10-10T02:45:51.975Z,20.8
2023-10-10T02:54:18.011Z,22.5
2023-10-10T02:56:23.817Z,24
2023-10-10T02:58:29.554Z,41.5
2023-10-10T03:00:35.269Z,28.9
2023-10-10T03:02:44.103Z,48.1
2023-10-10T03:04:49.790Z,33.5
2023-10-10T03:06:55.556Z,30.9
2023-10-10T03:07:59.914Z,34.5
2023-10-10T03:14:17.186Z,33
2023-10-10T03:16:25.932Z,39
2023-10-10T03:31:09.169Z,35
2023-10-10T03:33:14.979Z,38.2
2023-10-10T03:35:20.726Z,38.8
2023-10-10T03:37:26.463Z,39.6
2023-10-10T03:39:32.210Z,38.6
2023-10-10T03:41:38.007Z,34
2023-10-10T03:43:43.723Z,35.1
2023-10-10T03:47:58.208Z,36.1
2023-10-10T03:50:03.993Z,30.7
2023-10-10T03:52:09.740Z,28.5
2023-10-10T03:58:27.010Z,39.8
2023-10-10T04:00:35.736Z,41.8
2023-10-10T04:04:47.247Z,47.3
2023-10-10T04:05:51.677Z,36.3
2023-10-10T04:07:57.387Z,42.3
2023-10-10T04:10:03.130Z,43.6
2023-10-10T04:12:08.896Z,36.2
2023-10-10T04:16:23.405Z,34.9
2023-10-10T04:22:40.637Z,50.6
2023-10-10T04:26:52.146Z,56.1
2023-10-10T04:29:00.949Z,49
2023-10-10T04:31:06.647Z,49.2
2023-10-10T04:33:12.504Z,44.8
2023-10-10T04:37:23.954Z,41.7
2023-10-10T04:39:29.679Z,46.5
2023-10-10T04:41:35.497Z,72
2023-10-10T04:43:44.166Z,48.3
2023-10-10T04:45:50.052Z,41.4
2023-10-10T04:47:55.771Z,49.9
2023-10-10T04:56:18.754Z,44.3
2023-10-10T04:58:27.434Z,60.3
2023-10-10T05:02:39.059Z,65.7
2023-10-10T05:05:10.251Z,54.4
2023-10-10T05:07:15.976Z,62.5
2023-10-10T05:15:41.935Z,63.2
2023-10-10T05:17:47.874Z,48
2023-10-10T05:19:53.450Z,59.6
2023-10-10T05:21:59.224Z,54.5
2023-10-10T05:24:05.015Z,51.4
2023-10-10T05:26:13.709Z,53.3
2023-10-10T05:28:19.483Z,61.8
2023-10-10T05:32:31.053Z,78.9
2023-10-10T05:34:36.702Z,67.1
2023-10-10T05:38:48.255Z,69.8
2023-10-10T05:40:58.315Z,80.6
2023-10-10T05:43:02.707Z,81.3
2023-10-10T05:45:08.473Z,110.8
2023-10-10T05:47:14.269Z,91.7
2023-10-10T05:49:19.979Z,83.5
2023-10-10T05:51:25.728Z,100.5
2023-10-10T05:53:31.507Z,104.7
2023-10-10T05:55:37.982Z,86.9
2023-10-10T06:00:53.865Z,92.6
2023-10-10T06:02:59.663Z,95.4
2023-10-10T06:05:05.396Z,104
2023-10-10T06:07:11.079Z,99.1
2023-10-10T06:11:25.613Z,99.2
2023-10-10T06:13:31.298Z,110.1
2023-10-10T06:15:37.268Z,97.7
2023-10-10T06:19:48.563Z,106.9
2023-10-10T06:21:54.311Z,105.7
2023-10-10T06:24:03.073Z,102.5
2023-10-10T06:26:08.871Z,100.1
2023-10-10T06:28:14.563Z,108.5
2023-10-10T06:32:26.108Z,102.7
2023-10-10T06:34:31.804Z,99.7
2023-10-10T06:36:37.577Z,125.1
2023-10-10T06:38:46.325Z,124.1
2023-10-10T06:40:52.048Z,127.3
2023-10-10T06:43:02.618Z,118.7
2023-10-10T06:45:05.117Z,129.1
2023-10-10T06:49:16.669Z,108.7
2023-10-10T06:51:22.392Z,111.6
2023-10-10T06:53:31.130Z,107.3
2023-10-10T06:55:36.872Z,106.8
2023-10-10T06:58:46.986Z,104
2023-10-10T07:00:52.806Z,98.2
2023-10-10T07:07:12.945Z,74.1
2023-10-10T07:11:24.519Z,96.7
2023-10-10T07:15:36.438Z,90.9
2023-10-10T07:17:41.812Z,81.7
2023-10-10T07:19:47.513Z,72
2023-10-10T07:21:56.233Z,75.9
2023-10-10T07:24:01.991Z,75.7
2023-10-10T07:34:30.791Z,69.8
2023-10-10T07:38:45.361Z,64.6
2023-10-10T07:42:56.792Z,67.6
2023-10-10T07:45:02.549Z,54.3
2023-10-10T07:49:14.068Z,54
2023-10-10T07:51:22.793Z,69.1
2023-10-10T07:53:28.584Z,48.2
2023-10-10T07:56:38.743Z,68.9
2023-10-10T07:58:52.531Z,50.4
2023-10-10T08:00:50.236Z,53.8
2023-10-10T08:05:04.712Z,55.9
2023-10-10T08:11:21.996Z,46
2023-10-10T08:13:27.720Z,49.2
2023-10-10T08:15:33.491Z,46.1
2023-10-10T08:17:39.310Z,40.8
2023-10-10T08:19:47.976Z,55
2023-10-10T08:21:53.747Z,45.3
2023-10-10T08:23:59.488Z,45.5
2023-10-10T08:26:05.255Z,48.6
2023-10-10T08:28:11.000Z,34.7
2023-10-10T08:32:22.585Z,31.1
2023-10-10T08:38:42.712Z,46.9
2023-10-10T08:49:14.416Z,34.5
2023-10-10T08:53:25.998Z,25.3
2023-10-10T08:55:57.069Z,34.5
2023-10-10T09:02:17.503Z,23.5
2023-10-10T09:04:23.093Z,27.8
2023-10-10T09:06:28.767Z,23.6
2023-10-10T09:14:52.059Z,23.8
2023-10-10T09:17:00.606Z,19.1
2023-10-10T09:19:06.223Z,20.7
2023-10-10T09:21:11.995Z,22.7
2023-10-10T09:23:17.713Z,16.2
2023-10-10T09:25:23.467Z,22.2
2023-10-10T09:27:29.184Z,25.8
2023-10-10T09:29:34.965Z,17.5
2023-10-10T09:33:49.399Z,31
2023-10-10T09:40:06.640Z,12.3
2023-10-10T09:42:12.365Z,18.7
2023-10-10T09:44:18.392Z,17.9
2023-10-10T09:46:26.882Z,16.4
2023-10-10T09:48:32.636Z,24.8
2023-10-10T09:50:38.359Z,18.5
2023-10-10T09:51:42.690Z,14.9
2023-10-10T09:53:48.558Z,24.6
2023-10-10T09:55:54.164Z,20.5
2023-10-10T10:00:23.912Z,20.4
2023-10-10T10:16:57.547Z,17.2
2023-10-10T10:19:03.293Z,18.9
2023-10-10T10:21:09.018Z,18.6
2023-10-10T10:23:14.791Z,16.3
2023-10-10T10:27:26.267Z,14.4
2023-10-10T10:29:34.978Z,17.6
2023-10-10T10:31:41.429Z,19.5
2023-10-10T10:33:46.405Z,15.7
2023-10-10T10:35:52.118Z,10.9
2023-10-10T10:40:03.568Z,10
2023-10-10T10:42:09.300Z,13.7
2023-10-10T10:44:18.210Z,12.3
2023-10-10T10:46:23.805Z,18.4
2023-10-10T10:48:29.645Z,16.1
2023-10-10T10:49:33.826Z,11.1
2023-10-10T10:53:45.324Z,15.8
2023-10-10T10:55:50.997Z,14.1
2023-10-10T10:57:59.707Z,23.7
2023-10-10T11:00:05.521Z,11.6
2023-10-10T11:02:11.187Z,13.4
2023-10-10T11:04:17.139Z,15
2023-10-10T11:06:22.639Z,25.9
2023-10-10T11:08:28.702Z,13
2023-10-10T11:12:42.788Z,12.7
2023-10-10T11:14:48.611Z,9.3
2023-10-10T11:18:59.964Z,9.6
2023-10-10T11:21:05.704Z,14.4
2023-10-10T11:25:17.128Z,10.6
2023-10-10T11:33:43.067Z,17
2023-10-10T11:35:48.818Z,13.2
2023-10-10T11:40:00.249Z,14.8
2023-10-10T11:46:20.450Z,22.1
2023-10-10T11:47:24.860Z,13.3
2023-10-10T11:51:36.244Z,11.3
2023-10-10T11:53:42.003Z,9.2
2023-10-10T11:55:50.672Z,12.9
2023-10-10T11:57:56.405Z,16.1
2023-10-10T12:00:16.227Z,11.1
2023-10-10T12:02:07.862Z,16.3
2023-10-10T12:04:13.870Z,10.8
2023-10-10T12:06:19.356Z,8.9
2023-10-10T12:12:39.500Z,13
2023-10-10T12:16:50.982Z,11.7
2023-10-10T12:18:56.770Z,16
2023-10-10T12:21:02.451Z,17.5
2023-10-10T12:23:08.189Z,12.4
2023-10-10T12:25:16.900Z,15.5
2023-10-10T12:27:22.629Z,11.1
2023-10-10T12:29:28.364Z,7.9
2023-10-10T12:33:39.829Z,14.9
2023-10-10T12:39:59.963Z,13.7
2023-10-10T12:42:05.838Z,13.4
2023-10-10T12:44:11.429Z,11.5
2023-10-10T12:48:49.894Z,9.8
2023-10-10T12:57:15.787Z,26.5
2023-10-10T12:59:26.430Z,12.8
2023-10-10T13:01:27.192Z,15.8
2023-10-10T13:03:33.147Z,10.3
2023-10-10T13:05:38.667Z,8.7
2023-10-10T13:07:47.352Z,10.7
2023-10-10T13:09:53.064Z,24.4
2023-10-10T13:16:10.313Z,14.3
2023-10-10T13:18:16.055Z,14.1
2023-10-10T13:20:22.116Z,20.8
2023-10-10T13:22:30.789Z,11
2023-10-10T13:24:36.076Z,13.2
2023-10-10T13:28:47.546Z,19.1
2023-10-10T13:30:53.233Z,16.6
2023-10-10T13:32:59.062Z,15.6
2023-10-10T13:35:04.682Z,12.6
2023-10-10T13:37:13.410Z,16
2023-10-10T13:42:29.204Z,26.8
2023-10-10T13:44:34.999Z,34.8
2023-10-10T13:46:41.292Z,9.2
2023-10-10T13:48:46.987Z,14.3
2023-10-10T13:50:55.736Z,20.8
2023-10-10T13:55:07.099Z,11.9
2023-10-10T13:57:12.822Z,16.2
2023-10-10T13:59:18.622Z,17.1
2023-10-10T14:01:24.365Z,15.6
2023-10-10T14:03:30.296Z,12.2
2023-10-10T14:05:38.721Z,12.4
2023-10-10T14:07:44.441Z,11.5
2023-10-10T14:10:01.743Z,11.6
2023-10-10T14:11:57.932Z,10.5
2023-10-10T14:14:01.610Z,14.5
2023-10-10T14:18:13.233Z,16.2
2023-10-10T14:20:21.842Z,10.2
2023-10-10T14:22:32.318Z,13.1
2023-10-10T14:24:33.352Z,21.2
2023-10-10T14:26:38.962Z,11.3
2023-10-10T14:28:44.674Z,15.4
2023-10-10T14:30:50.522Z,9.5
2023-10-10T14:32:56.483Z,15.4
2023-10-10T14:35:04.858Z,14.5
2023-10-10T14:39:16.436Z,11.9
2023-10-10T14:44:33.325Z,14.3
2023-10-10T14:46:37.961Z,19.7
2023-10-10T14:48:46.653Z,20.3
2023-10-10T14:50:53.379Z,14.7
2023-10-10T14:55:03.800Z,10
2023-10-10T15:01:20.990Z,9.7
2023-10-10T15:07:41.199Z,11.2
2023-10-10T15:11:52.750Z,12.3
2023-10-10T15:13:58.428Z,18.9
2023-10-10T15:16:04.239Z,12.6
2023-10-10T15:20:18.646Z,18.8
2023-10-10T15:22:24.368Z,17
2023-10-10T15:24:30.085Z,16.9
2023-10-10T15:26:35.960Z,9.2
2023-10-10T15:28:41.563Z,16.4
2023-10-10T15:32:56.107Z,11.8
2023-10-10T15:37:07.496Z,16.9
2023-10-10T15:38:11.868Z,18.4
2023-10-10T15:40:17.594Z,8.9
2023-10-10T15:42:23.374Z,9.2
2023-10-10T15:44:29.131Z,20.2
2023-10-10T15:46:39.342Z,12
2023-10-10T15:48:43.734Z,16
2023-10-10T15:50:49.318Z,11.6
2023-10-10T15:52:55.035Z,11.4
2023-10-10T15:55:00.779Z,11.3
2023-10-10T15:57:06.511Z,24.6
2023-10-10T15:59:12.286Z,11.4
2023-10-10T16:01:21.006Z,18.4
2023-10-10T16:03:26.826Z,23.1
2023-10-10T16:16:04.252Z,10.4
2023-10-10T16:18:10.049Z,8.5
2023-10-10T16:20:15.730Z,10.2
2023-10-10T16:22:21.491Z,9
2023-10-10T16:26:33.031Z,15.2
2023-10-10T16:28:38.748Z,19.2
2023-10-10T16:30:47.480Z,13.7
2023-10-10T16:32:53.298Z,12.5
2023-10-10T16:34:58.987Z,12.8
2023-10-10T16:37:30.191Z,25.5
2023-10-10T16:39:35.921Z,11.5
2023-10-10T16:41:41.771Z,11.9
2023-10-10T16:44:00.985Z,11.2
2023-10-10T16:45:56.211Z,10.4
2023-10-10T16:48:02.103Z,16.1
2023-10-10T16:50:07.717Z,34.7
2023-10-10T16:52:13.472Z,7.1
2023-10-10T16:56:25.018Z,11.9
2023-10-10T17:06:56.788Z,11.9
2023-10-10T17:09:02.600Z,15.6
2023-10-10T17:11:08.334Z,11.8
2023-10-10T17:13:17.110Z,16
2023-10-10T17:15:22.838Z,20.3
2023-10-10T17:17:28.635Z,11.6
2023-10-10T17:21:41.533Z,12.4
2023-10-10T17:23:45.952Z,14.5
2023-10-10T17:25:51.650Z,19.4
2023-10-10T17:30:06.239Z,12.9
2023-10-10T17:32:11.931Z,17.1
2023-10-10T17:33:16.361Z,10.1
2023-10-10T17:35:22.096Z,11.8
2023-10-10T17:37:27.838Z,10.3
2023-10-10T17:39:33.612Z,11.9
2023-10-10T17:41:42.404Z,16.8
2023-10-10T17:43:48.114Z,8.9
2023-10-10T17:45:53.909Z,12.8
2023-10-10T17:47:59.804Z,18
2023-10-10T17:50:05.415Z,24.6
2023-10-10T17:52:11.188Z,18.7
2023-10-10T17:54:17.553Z,8.7
2023-10-10T17:56:25.890Z,13
2023-10-10T17:58:31.482Z,10.2
2023-10-10T18:02:43.092Z,8.7
2023-10-10T18:04:48.831Z,12.8
2023-10-10T18:06:54.584Z,11.6
2023-10-10T18:09:00.352Z,37.4
2023-10-10T18:17:26.404Z,15.2
2023-10-10T18:19:32.246Z,18.9
2023-10-10T18:21:37.920Z,8.1
2023-10-10T18:23:43.728Z,11.4
2023-10-10T18:27:58.204Z,8
2023-10-10T18:31:08.375Z,16.7
2023-10-10T18:33:14.242Z,7.8
2023-10-10T18:35:19.871Z,7
2023-10-10T18:37:25.680Z,8.4
2023-10-10T18:45:51.701Z,8.8
2023-10-10T18:47:59.136Z,21.2
2023-10-10T18:50:04.835Z,8.6
2023-10-10T18:52:10.582Z,12.7
2023-10-10T18:54:19.358Z,10.1
2023-10-10T18:56:25.116Z,7.5
2023-10-10T18:58:30.978Z,14
2023-10-10T19:00:36.765Z,19.5
2023-10-10T19:02:42.443Z,9.3
2023-10-10T19:13:14.257Z,16.1
2023-10-10T19:15:20.008Z,7.9
2023-10-10T19:23:46.121Z,9.9
2023-10-10T19:25:51.833Z,4.4
2023-10-10T19:29:01.960Z,13.3
2023-10-10T19:31:07.797Z,24
2023-10-10T19:37:28.018Z,8.6
2023-10-10T19:39:33.810Z,8.5
2023-10-10T19:41:39.640Z,6.8
2023-10-10T19:43:45.333Z,12.1
2023-10-10T19:45:51.131Z,15.2
2023-10-10T19:50:02.659Z,7.9
2023-10-10T19:52:11.437Z,7.4
2023-10-10T19:54:17.513Z,8.2
2023-10-10T19:56:22.969Z,10.3
2023-10-10T20:09:00.656Z,13.3
2023-10-10T20:23:44.243Z,6.5
2023-10-10T20:28:20.970Z,13.1
2023-10-10T20:32:32.600Z,9.7
2023-10-10T20:34:41.271Z,7.4
2023-10-10T20:36:47.006Z,6.7
2023-10-10T20:38:52.790Z,12.3
2023-10-10T20:40:58.538Z,7.9
2023-10-10T20:43:04.308Z,10.7
2023-10-10T20:45:10.171Z,7.7
2023-10-10T20:47:15.841Z,8.8
2023-10-10T20:49:24.591Z,10.3
2023-10-10T20:51:30.313Z,26.3
2023-10-10T20:55:41.883Z,9.4
2023-10-10T20:57:47.629Z,9.5
2023-10-10T21:04:07.939Z,15.3
2023-10-10T21:12:30.981Z,12.4
2023-10-10T21:14:36.766Z,3.5
2023-10-10T21:16:42.561Z,7
2023-10-10T21:18:51.401Z,22.3
2023-10-10T21:21:03.244Z,10
2023-10-10T21:23:02.865Z,7.6
2023-10-10T21:24:07.231Z,17.4
2023-10-10T21:26:12.962Z,11.2
2023-10-10T21:28:18.737Z,11.9
2023-10-10T21:36:44.788Z,6.9
2023-10-10T21:38:50.582Z,15.1
2023-10-10T21:43:02.119Z,7.2
2023-10-10T21:45:07.967Z,16.5
2023-10-10T21:47:16.652Z,18
2023-10-10T21:49:22.421Z,15.2
2023-10-10T21:51:28.207Z,6.2
2023-10-10T21:53:33.986Z,7.7
2023-10-10T21:55:39.818Z,13.8
2023-10-10T21:57:45.484Z,16
2023-10-10T21:59:51.325Z,8.5
2023-10-10T22:02:00.088Z,5.6
2023-10-10T22:04:06.056Z,5.3
2023-10-10T22:06:11.632Z,16.1
2023-10-10T22:08:17.334Z,14.9
2023-10-10T22:10:23.125Z,21.1
2023-10-10T22:12:28.880Z,8.5
2023-10-10T22:14:34.687Z,11.8
2023-10-10T22:18:49.410Z,8.5
2023-10-10T22:20:54.982Z,9.5
2023-10-10T22:21:59.301Z,7.6
2023-10-10T22:24:05.105Z,7.7
2023-10-10T22:26:10.875Z,10.6
2023-10-10T22:28:16.644Z,8.3
2023-10-10T22:32:31.179Z,7
2023-10-10T22:34:36.911Z,10.7
2023-10-10T22:36:49.509Z,7.1
2023-10-10T22:38:48.526Z,10.6
2023-10-10T22:40:54.219Z,13
2023-10-10T22:45:08.771Z,7
2023-10-10T22:47:14.506Z,12.2
2023-10-10T22:53:31.846Z,6.5
2023-10-10T22:59:52.132Z,7.4
2023-10-10T23:04:04.143Z,12.8
2023-10-10T23:06:09.846Z,12.9
2023-10-10T23:12:27.127Z,8.8
2023-10-10T23:14:35.916Z,9.5
2023-10-10T23:16:41.678Z,6
2023-10-10T23:18:47.605Z,8.2
2023-10-10T23:19:51.775Z,17.4
2023-10-10T23:24:03.354Z,15.2
2023-10-10T23:26:09.083Z,9.1
2023-10-10T23:43:01.209Z,12.2
2023-10-10T23:45:07.109Z,10.7
2023-10-10T23:51:24.306Z,11
2023-10-10T23:53:30.059Z,12.4
2023-10-10T23:59:50.382Z,13.6
